sensor_id;sensor_type;location;lat;lon;timestamp;temperature;humidity
15777;DHT22;7989;51.198;6.676;2022-08-01T00:02:07;21.10;99.90
15777;DHT22;7989;51.198;6.676;2022-08-01T00:04:34;21.10;99.90
15777;DHT22;7989;51.198;6.676;2022-08-01T00:07:00;21.00;99.90
15777;DHT22;7989;51.198;6.676;2022-08-01T00:09:29;21.00;99.90
15777;DHT22;7989;51.198;6.676;2022-08-01T00:11:56;20.90;99.90
15777;DHT22;7989;51.198;6.676;2022-08-01T00:14:23;20.70;99.90
15777;DHT22;7989;51.198;6.676;2022-08-01T00:16:49;20.80;99.90
15777;DHT22;7989;51.198;6.676;2022-08-01T00:19:16;20.80;99.90
15777;DHT22;7989;51.198;6.676;2022-08-01T00:21:43;20.80;99.90
15777;DHT22;7989;51.198;6.676;2022-08-01T00:24:10;20.70;99.90
15777;DHT22;7989;51.198;6.676;2022-08-01T00:26:38;20.80;99.90
15777;DHT22;7989;51.198;6.676;2022-08-01T00:29:05;20.80;99.90
15777;DHT22;7989;51.198;6.676;2022-08-01T00:31:32;20.80;99.90
15777;DHT22;7989;51.198;6.676;2022-08-01T00:33:59;20.90;99.90
15777;DHT22;7989;51.198;6.676;2022-08-01T00:36:26;20.90;99.90
15777;DHT22;7989;51.198;6.676;2022-08-01T00:38:53;20.90;99.90
15777;DHT22;7989;51.198;6.676;2022-08-01T00:41:19;20.90;99.90
15777;DHT22;7989;51.198;6.676;2022-08-01T00:43:48;20.70;99.90
15777;DHT22;7989;51.198;6.676;2022-08-01T00:46:15;20.70;99.90
15777;DHT22;7989;51.198;6.676;2022-08-01T00:48:41;20.70;99.90
15777;DHT22;7989;51.198;6.676;2022-08-01T00:51:08;20.80;99.90
15777;DHT22;7989;51.198;6.676;2022-08-01T00:53:35;20.70;99.90
15777;DHT22;7989;51.198;6.676;2022-08-01T00:56:03;20.80;99.90
15777;DHT22;7989;51.198;6.676;2022-08-01T00:58:30;20.80;99.90
15777;DHT22;7989;51.198;6.676;2022-08-01T01:00:59;20.80;99.90
15777;DHT22;7989;51.198;6.676;2022-08-01T01:03:26;20.80;99.90
15777;DHT22;7989;51.198;6.676;2022-08-01T01:06:01;20.80;99.90
15777;DHT22;7989;51.198;6.676;2022-08-01T01:08:37;20.80;99.90
15777;DHT22;7989;51.198;6.676;2022-08-01T01:11:10;20.70;99.90
15777;DHT22;7989;51.198;6.676;2022-08-01T01:13:46;20.70;99.90
15777;DHT22;7989;51.198;6.676;2022-08-01T01:16:19;20.60;99.90
15777;DHT22;7989;51.198;6.676;2022-08-01T01:18:49;20.60;99.90
15777;DHT22;7989;51.198;6.676;2022-08-01T01:22:00;20.60;99.90
15777;DHT22;7989;51.198;6.676;2022-08-01T01:24:34;20.60;99.90
15777;DHT22;7989;51.198;6.676;2022-08-01T01:27:10;20.60;99.90
15777;DHT22;7989;51.198;6.676;2022-08-01T01:29:48;20.60;99.90
15777;DHT22;7989;51.198;6.676;2022-08-01T01:32:19;20.50;99.90
15777;DHT22;7989;51.198;6.676;2022-08-01T01:34:50;20.50;99.90
15777;DHT22;7989;51.198;6.676;2022-08-01T01:37:19;20.60;99.90
15777;DHT22;7989;51.198;6.676;2022-08-01T01:39:48;20.50;99.90
15777;DHT22;7989;51.198;6.676;2022-08-01T01:42:17;20.60;99.90
15777;DHT22;7989;51.198;6.676;2022-08-01T01:44:46;20.60;99.90
15777;DHT22;7989;51.198;6.676;2022-08-01T01:47:15;20.50;99.90
15777;DHT22;7989;51.198;6.676;2022-08-01T01:49:44;20.50;99.90
15777;DHT22;7989;51.198;6.676;2022-08-01T01:52:14;20.60;99.90
15777;DHT22;7989;51.198;6.676;2022-08-01T01:54:46;20.50;99.90
15777;DHT22;7989;51.198;6.676;2022-08-01T01:57:14;20.50;99.90
15777;DHT22;7989;51.198;6.676;2022-08-01T01:59:42;20.50;99.90
15777;DHT22;7989;51.198;6.676;2022-08-01T02:02:12;20.50;99.90
15777;DHT22;7989;51.198;6.676;2022-08-01T02:04:43;20.50;99.90
15777;DHT22;7989;51.198;6.676;2022-08-01T02:07:12;20.60;99.90
15777;DHT22;7989;51.198;6.676;2022-08-01T02:09:42;20.60;99.90
15777;DHT22;7989;51.198;6.676;2022-08-01T02:12:10;20.60;99.90
15777;DHT22;7989;51.198;6.676;2022-08-01T02:14:38;20.60;99.90
15777;DHT22;7989;51.198;6.676;2022-08-01T02:17:06;20.60;99.90
15777;DHT22;7989;51.198;6.676;2022-08-01T02:19:37;20.60;99.90
15777;DHT22;7989;51.198;6.676;2022-08-01T02:22:07;20.60;99.90
15777;DHT22;7989;51.198;6.676;2022-08-01T02:24:39;20.60;99.90
15777;DHT22;7989;51.198;6.676;2022-08-01T02:27:10;20.60;99.90
15777;DHT22;7989;51.198;6.676;2022-08-01T02:29:42;20.60;99.90
15777;DHT22;7989;51.198;6.676;2022-08-01T02:32:13;20.60;99.90
15777;DHT22;7989;51.198;6.676;2022-08-01T02:34:45;20.60;99.90
15777;DHT22;7989;51.198;6.676;2022-08-01T02:37:13;20.50;99.90
15777;DHT22;7989;51.198;6.676;2022-08-01T02:39:42;20.50;99.90
15777;DHT22;7989;51.198;6.676;2022-08-01T02:42:13;20.60;99.90
15777;DHT22;7989;51.198;6.676;2022-08-01T02:44:42;20.50;99.90
15777;DHT22;7989;51.198;6.676;2022-08-01T02:47:10;20.60;99.90
15777;DHT22;7989;51.198;6.676;2022-08-01T02:49:44;20.60;99.90
15777;DHT22;7989;51.198;6.676;2022-08-01T02:52:15;20.60;99.90
15777;DHT22;7989;51.198;6.676;2022-08-01T02:54:45;20.60;99.90
15777;DHT22;7989;51.198;6.676;2022-08-01T02:57:13;20.60;99.90
15777;DHT22;7989;51.198;6.676;2022-08-01T02:59:42;20.60;99.90
15777;DHT22;7989;51.198;6.676;2022-08-01T03:02:09;20.60;99.90
15777;DHT22;7989;51.198;6.676;2022-08-01T03:04:38;20.70;99.90
15777;DHT22;7989;51.198;6.676;2022-08-01T03:07:08;20.60;99.90
15777;DHT22;7989;51.198;6.676;2022-08-01T03:09:39;20.60;99.90
15777;DHT22;7989;51.198;6.676;2022-08-01T03:12:11;20.60;99.90
15777;DHT22;7989;51.198;6.676;2022-08-01T03:14:40;20.60;99.90
15777;DHT22;7989;51.198;6.676;2022-08-01T03:17:08;20.60;99.90
15777;DHT22;7989;51.198;6.676;2022-08-01T03:19:38;20.60;99.90
15777;DHT22;7989;51.198;6.676;2022-08-01T03:22:07;20.60;99.90
15777;DHT22;7989;51.198;6.676;2022-08-01T03:24:38;20.60;99.90
15777;DHT22;7989;51.198;6.676;2022-08-01T03:27:06;20.60;99.90
15777;DHT22;7989;51.198;6.676;2022-08-01T03:29:34;20.60;99.90
15777;DHT22;7989;51.198;6.676;2022-08-01T03:32:01;20.50;99.90
15777;DHT22;7989;51.198;6.676;2022-08-01T03:34:28;20.50;99.90
15777;DHT22;7989;51.198;6.676;2022-08-01T03:37:05;20.50;99.90
15777;DHT22;7989;51.198;6.676;2022-08-01T03:39:36;20.60;99.90
15777;DHT22;7989;51.198;6.676;2022-08-01T03:42:09;20.50;99.90
15777;DHT22;7989;51.198;6.676;2022-08-01T03:44:39;20.50;99.90
15777;DHT22;7989;51.198;6.676;2022-08-01T03:47:09;20.50;99.90
15777;DHT22;7989;51.198;6.676;2022-08-01T03:49:40;20.50;99.90
15777;DHT22;7989;51.198;6.676;2022-08-01T03:52:08;20.40;99.90
15777;DHT22;7989;51.198;6.676;2022-08-01T03:54:37;20.40;99.90
15777;DHT22;7989;51.198;6.676;2022-08-01T03:57:07;20.40;99.90
15777;DHT22;7989;51.198;6.676;2022-08-01T03:59:35;20.50;99.90
15777;DHT22;7989;51.198;6.676;2022-08-01T04:02:03;20.50;99.90
15777;DHT22;7989;51.198;6.676;2022-08-01T04:04:32;20.40;99.90
15777;DHT22;7989;51.198;6.676;2022-08-01T04:06:59;20.50;99.90
15777;DHT22;7989;51.198;6.676;2022-08-01T04:09:30;20.40;99.90
15777;DHT22;7989;51.198;6.676;2022-08-01T04:11:58;20.50;99.90
15777;DHT22;7989;51.198;6.676;2022-08-01T04:14:26;20.40;99.90
15777;DHT22;7989;51.198;6.676;2022-08-01T04:16:53;20.40;99.90
15777;DHT22;7989;51.198;6.676;2022-08-01T04:19:20;20.40;99.90
15777;DHT22;7989;51.198;6.676;2022-08-01T04:21:47;20.40;99.90
15777;DHT22;7989;51.198;6.676;2022-08-01T04:24:17;20.50;99.90
15777;DHT22;7989;51.198;6.676;2022-08-01T04:26:46;20.60;99.90
15777;DHT22;7989;51.198;6.676;2022-08-01T04:29:15;20.50;99.90
15777;DHT22;7989;51.198;6.676;2022-08-01T04:31:46;20.50;99.90
15777;DHT22;7989;51.198;6.676;2022-08-01T04:34:16;20.50;99.90
15777;DHT22;7989;51.198;6.676;2022-08-01T04:36:44;20.50;99.90
15777;DHT22;7989;51.198;6.676;2022-08-01T04:39:13;20.50;99.90
15777;DHT22;7989;51.198;6.676;2022-08-01T04:41:42;20.50;99.90
15777;DHT22;7989;51.198;6.676;2022-08-01T04:44:10;20.50;99.90
15777;DHT22;7989;51.198;6.676;2022-08-01T04:46:37;20.50;99.90
15777;DHT22;7989;51.198;6.676;2022-08-01T04:49:06;20.50;99.90
15777;DHT22;7989;51.198;6.676;2022-08-01T04:51:35;20.60;99.90
15777;DHT22;7989;51.198;6.676;2022-08-01T04:54:02;20.60;99.90
15777;DHT22;7989;51.198;6.676;2022-08-01T04:56:29;20.60;99.90
15777;DHT22;7989;51.198;6.676;2022-08-01T04:58:56;20.50;99.90
15777;DHT22;7989;51.198;6.676;2022-08-01T05:01:40;20.60;99.90
15777;DHT22;7989;51.198;6.676;2022-08-01T05:04:08;20.60;99.90
15777;DHT22;7989;51.198;6.676;2022-08-01T05:06:35;20.60;99.90
15777;DHT22;7989;51.198;6.676;2022-08-01T05:09:02;20.60;99.90
15777;DHT22;7989;51.198;6.676;2022-08-01T05:11:29;20.60;99.90
15777;DHT22;7989;51.198;6.676;2022-08-01T05:13:56;20.60;99.90
15777;DHT22;7989;51.198;6.676;2022-08-01T05:16:23;20.70;99.90
15777;DHT22;7989;51.198;6.676;2022-08-01T05:18:49;20.60;99.90
15777;DHT22;7989;51.198;6.676;2022-08-01T05:21:18;20.70;99.90
15777;DHT22;7989;51.198;6.676;2022-08-01T05:23:44;20.70;99.90
15777;DHT22;7989;51.198;6.676;2022-08-01T05:26:11;20.60;99.90
15777;DHT22;7989;51.198;6.676;2022-08-01T05:28:39;20.50;99.90
15777;DHT22;7989;51.198;6.676;2022-08-01T05:31:06;20.60;99.90
15777;DHT22;7989;51.198;6.676;2022-08-01T05:33:33;20.60;99.90
15777;DHT22;7989;51.198;6.676;2022-08-01T05:36:00;20.60;99.90
15777;DHT22;7989;51.198;6.676;2022-08-01T05:38:28;20.70;99.90
15777;DHT22;7989;51.198;6.676;2022-08-01T05:40:55;20.70;99.90
15777;DHT22;7989;51.198;6.676;2022-08-01T05:43:22;20.60;99.90
15777;DHT22;7989;51.198;6.676;2022-08-01T05:45:48;20.60;99.90
15777;DHT22;7989;51.198;6.676;2022-08-01T05:48:15;20.60;99.90
15777;DHT22;7989;51.198;6.676;2022-08-01T05:50:42;20.60;99.90
15777;DHT22;7989;51.198;6.676;2022-08-01T05:53:09;20.70;99.90
15777;DHT22;7989;51.198;6.676;2022-08-01T05:55:37;20.60;99.90
15777;DHT22;7989;51.198;6.676;2022-08-01T05:58:04;20.60;99.90
15777;DHT22;7989;51.198;6.676;2022-08-01T06:00:31;20.60;99.90
15777;DHT22;7989;51.198;6.676;2022-08-01T06:02:58;20.80;99.90
15777;DHT22;7989;51.198;6.676;2022-08-01T06:05:25;20.70;99.90
15777;DHT22;7989;51.198;6.676;2022-08-01T06:07:52;20.70;99.90
15777;DHT22;7989;51.198;6.676;2022-08-01T06:10:19;20.70;99.90
15777;DHT22;7989;51.198;6.676;2022-08-01T06:12:47;20.70;99.90
15777;DHT22;7989;51.198;6.676;2022-08-01T06:15:14;20.70;99.90
15777;DHT22;7989;51.198;6.676;2022-08-01T06:17:41;20.70;99.90
15777;DHT22;7989;51.198;6.676;2022-08-01T06:20:09;20.70;99.90
15777;DHT22;7989;51.198;6.676;2022-08-01T06:22:36;20.80;99.90
15777;DHT22;7989;51.198;6.676;2022-08-01T06:25:04;20.70;99.90
15777;DHT22;7989;51.198;6.676;2022-08-01T06:27:35;20.80;99.90
15777;DHT22;7989;51.198;6.676;2022-08-01T06:30:04;20.70;99.90
15777;DHT22;7989;51.198;6.676;2022-08-01T06:32:33;20.80;99.90
15777;DHT22;7989;51.198;6.676;2022-08-01T06:35:00;20.80;99.90
15777;DHT22;7989;51.198;6.676;2022-08-01T06:37:28;20.90;99.90
15777;DHT22;7989;51.198;6.676;2022-08-01T06:39:56;21.00;99.90
15777;DHT22;7989;51.198;6.676;2022-08-01T06:42:22;21.00;99.90
15777;DHT22;7989;51.198;6.676;2022-08-01T06:44:49;21.10;99.90
15777;DHT22;7989;51.198;6.676;2022-08-01T06:47:18;21.20;99.90
15777;DHT22;7989;51.198;6.676;2022-08-01T06:49:44;21.30;99.90
15777;DHT22;7989;51.198;6.676;2022-08-01T06:52:11;21.40;99.90
15777;DHT22;7989;51.198;6.676;2022-08-01T06:54:38;21.60;99.90
15777;DHT22;7989;51.198;6.676;2022-08-01T06:57:05;21.50;99.90
15777;DHT22;7989;51.198;6.676;2022-08-01T06:59:32;21.60;99.90
15777;DHT22;7989;51.198;6.676;2022-08-01T07:01:59;21.60;99.90
15777;DHT22;7989;51.198;6.676;2022-08-01T07:04:28;21.80;99.90
15777;DHT22;7989;51.198;6.676;2022-08-01T07:06:56;22.10;99.90
15777;DHT22;7989;51.198;6.676;2022-08-01T07:09:22;22.10;99.90
15777;DHT22;7989;51.198;6.676;2022-08-01T07:11:49;22.00;99.90
15777;DHT22;7989;51.198;6.676;2022-08-01T07:14:18;21.90;99.90
15777;DHT22;7989;51.198;6.676;2022-08-01T07:16:45;22.10;99.90
15777;DHT22;7989;51.198;6.676;2022-08-01T07:19:12;22.10;99.90
15777;DHT22;7989;51.198;6.676;2022-08-01T07:21:40;22.20;99.90
15777;DHT22;7989;51.198;6.676;2022-08-01T07:24:09;22.20;99.90
15777;DHT22;7989;51.198;6.676;2022-08-01T07:26:36;22.20;99.90
15777;DHT22;7989;51.198;6.676;2022-08-01T07:29:03;22.20;99.90
15777;DHT22;7989;51.198;6.676;2022-08-01T07:31:30;22.40;99.90
15777;DHT22;7989;51.198;6.676;2022-08-01T07:33:57;22.60;99.90
15777;DHT22;7989;51.198;6.676;2022-08-01T07:36:24;22.60;99.90
15777;DHT22;7989;51.198;6.676;2022-08-01T07:38:52;23.50;99.90
15777;DHT22;7989;51.198;6.676;2022-08-01T07:41:19;24.80;99.90
15777;DHT22;7989;51.198;6.676;2022-08-01T07:43:46;24.40;99.90
15777;DHT22;7989;51.198;6.676;2022-08-01T07:46:14;24.60;99.90
15777;DHT22;7989;51.198;6.676;2022-08-01T07:48:41;24.30;99.90
15777;DHT22;7989;51.198;6.676;2022-08-01T07:51:08;24.40;99.90
15777;DHT22;7989;51.198;6.676;2022-08-01T07:53:36;24.10;99.90
15777;DHT22;7989;51.198;6.676;2022-08-01T07:56:05;24.10;99.90
15777;DHT22;7989;51.198;6.676;2022-08-01T07:58:32;24.50;99.90
15777;DHT22;7989;51.198;6.676;2022-08-01T08:00:59;24.70;99.90
15777;DHT22;7989;51.198;6.676;2022-08-01T08:03:26;24.40;99.90
15777;DHT22;7989;51.198;6.676;2022-08-01T08:05:53;23.90;99.90
15777;DHT22;7989;51.198;6.676;2022-08-01T08:08:20;23.60;99.90
15777;DHT22;7989;51.198;6.676;2022-08-01T08:10:47;23.60;99.90
15777;DHT22;7989;51.198;6.676;2022-08-01T08:13:15;23.70;99.90
15777;DHT22;7989;51.198;6.676;2022-08-01T08:15:41;23.70;99.90
15777;DHT22;7989;51.198;6.676;2022-08-01T08:18:08;23.80;99.90
15777;DHT22;7989;51.198;6.676;2022-08-01T08:20:35;23.90;99.90
15777;DHT22;7989;51.198;6.676;2022-08-01T08:23:02;24.10;99.90
15777;DHT22;7989;51.198;6.676;2022-08-01T08:25:49;24.40;99.90
15777;DHT22;7989;51.198;6.676;2022-08-01T08:28:17;24.60;99.90
15777;DHT22;7989;51.198;6.676;2022-08-01T08:30:44;24.80;99.90
15777;DHT22;7989;51.198;6.676;2022-08-01T08:33:11;24.60;99.90
15777;DHT22;7989;51.198;6.676;2022-08-01T08:35:39;24.70;99.90
15777;DHT22;7989;51.198;6.676;2022-08-01T08:38:06;24.80;99.90
15777;DHT22;7989;51.198;6.676;2022-08-01T08:40:35;24.80;99.90
15777;DHT22;7989;51.198;6.676;2022-08-01T08:43:04;24.60;99.90
15777;DHT22;7989;51.198;6.676;2022-08-01T08:45:32;24.60;99.90
15777;DHT22;7989;51.198;6.676;2022-08-01T08:48:00;24.40;99.90
15777;DHT22;7989;51.198;6.676;2022-08-01T08:50:28;24.20;99.90
15777;DHT22;7989;51.198;6.676;2022-08-01T08:52:56;24.50;99.90
15777;DHT22;7989;51.198;6.676;2022-08-01T08:55:24;24.50;99.90
15777;DHT22;7989;51.198;6.676;2022-08-01T08:57:53;24.80;99.90
15777;DHT22;7989;51.198;6.676;2022-08-01T09:00:20;25.00;99.90
15777;DHT22;7989;51.198;6.676;2022-08-01T09:02:49;25.00;99.90
15777;DHT22;7989;51.198;6.676;2022-08-01T09:05:17;24.90;99.90
15777;DHT22;7989;51.198;6.676;2022-08-01T09:07:51;27.90;99.90
15777;DHT22;7989;51.198;6.676;2022-08-01T09:10:17;28.30;99.90
15777;DHT22;7989;51.198;6.676;2022-08-01T09:13:03;28.30;99.90
15777;DHT22;7989;51.198;6.676;2022-08-01T09:15:38;27.90;99.90
15777;DHT22;7989;51.198;6.676;2022-08-01T09:18:07;28.10;99.90
15777;DHT22;7989;51.198;6.676;2022-08-01T09:20:34;28.40;99.90
15777;DHT22;7989;51.198;6.676;2022-08-01T09:23:01;28.30;99.90
15777;DHT22;7989;51.198;6.676;2022-08-01T09:25:29;27.30;99.90
15777;DHT22;7989;51.198;6.676;2022-08-01T09:28:03;26.50;99.90
15777;DHT22;7989;51.198;6.676;2022-08-01T09:30:37;27.60;99.90
15777;DHT22;7989;51.198;6.676;2022-08-01T09:33:07;27.60;99.90
15777;DHT22;7989;51.198;6.676;2022-08-01T09:35:35;27.40;99.90
15777;DHT22;7989;51.198;6.676;2022-08-01T09:38:15;27.30;99.90
15777;DHT22;7989;51.198;6.676;2022-08-01T09:40:50;27.10;99.90
15777;DHT22;7989;51.198;6.676;2022-08-01T09:43:18;27.10;99.90
15777;DHT22;7989;51.198;6.676;2022-08-01T09:45:45;27.20;99.90
15777;DHT22;7989;51.198;6.676;2022-08-01T09:48:13;27.50;99.90
15777;DHT22;7989;51.198;6.676;2022-08-01T09:50:42;27.40;99.90
15777;DHT22;7989;51.198;6.676;2022-08-01T09:53:09;27.10;99.90
15777;DHT22;7989;51.198;6.676;2022-08-01T09:55:36;27.00;99.90
15777;DHT22;7989;51.198;6.676;2022-08-01T09:58:04;27.70;99.90
15777;DHT22;7989;51.198;6.676;2022-08-01T10:00:31;28.00;99.90
15777;DHT22;7989;51.198;6.676;2022-08-01T10:02:58;28.40;99.90
15777;DHT22;7989;51.198;6.676;2022-08-01T10:05:34;28.70;99.90
15777;DHT22;7989;51.198;6.676;2022-08-01T10:08:03;28.40;99.90
15777;DHT22;7989;51.198;6.676;2022-08-01T10:10:31;28.10;99.90
15777;DHT22;7989;51.198;6.676;2022-08-01T10:12:59;28.10;99.90
15777;DHT22;7989;51.198;6.676;2022-08-01T10:15:26;27.80;99.90
15777;DHT22;7989;51.198;6.676;2022-08-01T10:17:55;27.60;99.90
15777;DHT22;7989;51.198;6.676;2022-08-01T10:20:24;27.50;99.90
15777;DHT22;7989;51.198;6.676;2022-08-01T10:22:54;27.60;99.90
15777;DHT22;7989;51.198;6.676;2022-08-01T10:25:21;27.70;99.90
15777;DHT22;7989;51.198;6.676;2022-08-01T10:27:49;27.60;99.90
15777;DHT22;7989;51.198;6.676;2022-08-01T10:30:17;27.00;99.90
15777;DHT22;7989;51.198;6.676;2022-08-01T10:32:46;26.40;99.90
15777;DHT22;7989;51.198;6.676;2022-08-01T10:35:13;26.70;99.90
15777;DHT22;7989;51.198;6.676;2022-08-01T10:37:43;26.70;99.90
15777;DHT22;7989;51.198;6.676;2022-08-01T10:40:13;27.00;99.90
15777;DHT22;7989;51.198;6.676;2022-08-01T10:42:41;26.70;99.90
15777;DHT22;7989;51.198;6.676;2022-08-01T10:45:09;26.60;99.90
15777;DHT22;7989;51.198;6.676;2022-08-01T10:47:40;27.00;99.90
15777;DHT22;7989;51.198;6.676;2022-08-01T10:50:16;27.00;99.90
15777;DHT22;7989;51.198;6.676;2022-08-01T10:53:09;26.60;99.90
15777;DHT22;7989;51.198;6.676;2022-08-01T10:55:49;26.80;99.90
15777;DHT22;7989;51.198;6.676;2022-08-01T10:58:24;26.40;99.90
15777;DHT22;7989;51.198;6.676;2022-08-01T11:01:18;26.10;99.90
15777;DHT22;7989;51.198;6.676;2022-08-01T11:04:03;26.10;99.90
15777;DHT22;7989;51.198;6.676;2022-08-01T11:06:49;26.40;99.90
15777;DHT22;7989;51.198;6.676;2022-08-01T11:09:28;26.90;99.90
15777;DHT22;7989;51.198;6.676;2022-08-01T11:12:06;27.10;99.90
15777;DHT22;7989;51.198;6.676;2022-08-01T11:17:40;27.50;99.90
15777;DHT22;7989;51.198;6.676;2022-08-01T11:20:14;27.30;99.90
15777;DHT22;7989;51.198;6.676;2022-08-01T11:26:20;27.20;99.90
15777;DHT22;7989;51.198;6.676;2022-08-01T11:29:13;27.10;99.90
15777;DHT22;7989;51.198;6.676;2022-08-01T11:31:41;26.90;99.90
15777;DHT22;7989;51.198;6.676;2022-08-01T11:34:08;26.70;99.90
15777;DHT22;7989;51.198;6.676;2022-08-01T11:36:35;26.90;99.90
15777;DHT22;7989;51.198;6.676;2022-08-01T11:39:13;27.40;99.90
15777;DHT22;7989;51.198;6.676;2022-08-01T11:41:49;27.80;99.90
15777;DHT22;7989;51.198;6.676;2022-08-01T11:44:18;27.90;99.90
15777;DHT22;7989;51.198;6.676;2022-08-01T11:47:00;28.20;99.90
15777;DHT22;7989;51.198;6.676;2022-08-01T11:52:18;28.70;99.90
15777;DHT22;7989;51.198;6.676;2022-08-01T11:54:47;29.00;99.90
15777;DHT22;7989;51.198;6.676;2022-08-01T11:57:18;29.30;99.90
15777;DHT22;7989;51.198;6.676;2022-08-01T11:59:47;29.30;99.90
15777;DHT22;7989;51.198;6.676;2022-08-01T12:02:33;28.50;99.90
15777;DHT22;7989;51.198;6.676;2022-08-01T12:05:02;28.30;99.90
15777;DHT22;7989;51.198;6.676;2022-08-01T12:07:31;28.10;99.90
15777;DHT22;7989;51.198;6.676;2022-08-01T12:09:59;28.10;99.90
15777;DHT22;7989;51.198;6.676;2022-08-01T12:12:29;28.30;99.90
15777;DHT22;7989;51.198;6.676;2022-08-01T12:14:57;28.70;99.90
15777;DHT22;7989;51.198;6.676;2022-08-01T12:17:28;28.50;99.90
15777;DHT22;7989;51.198;6.676;2022-08-01T12:19:55;28.20;99.90
15777;DHT22;7989;51.198;6.676;2022-08-01T12:22:23;27.90;99.90
15777;DHT22;7989;51.198;6.676;2022-08-01T12:24:50;28.10;99.90
15777;DHT22;7989;51.198;6.676;2022-08-01T12:27:24;28.40;99.90
15777;DHT22;7989;51.198;6.676;2022-08-01T12:29:53;28.20;99.90
15777;DHT22;7989;51.198;6.676;2022-08-01T12:32:25;28.40;99.90
15777;DHT22;7989;51.198;6.676;2022-08-01T12:34:53;28.20;99.90
15777;DHT22;7989;51.198;6.676;2022-08-01T12:37:20;26.90;99.90
15777;DHT22;7989;51.198;6.676;2022-08-01T12:39:47;27.00;99.90
15777;DHT22;7989;51.198;6.676;2022-08-01T12:42:14;27.50;99.90
15777;DHT22;7989;51.198;6.676;2022-08-01T12:44:43;28.20;99.90
15777;DHT22;7989;51.198;6.676;2022-08-01T12:47:13;28.40;99.90
15777;DHT22;7989;51.198;6.676;2022-08-01T12:49:42;28.40;99.90
15777;DHT22;7989;51.198;6.676;2022-08-01T12:52:10;28.30;99.90
15777;DHT22;7989;51.198;6.676;2022-08-01T12:55:04;27.70;99.90
15777;DHT22;7989;51.198;6.676;2022-08-01T12:57:31;28.10;99.90
15777;DHT22;7989;51.198;6.676;2022-08-01T13:00:28;28.00;99.90
15777;DHT22;7989;51.198;6.676;2022-08-01T13:03:03;27.80;99.90
15777;DHT22;7989;51.198;6.676;2022-08-01T13:05:41;27.30;99.90
15777;DHT22;7989;51.198;6.676;2022-08-01T13:08:10;26.60;99.90
15777;DHT22;7989;51.198;6.676;2022-08-01T13:10:38;26.60;99.90
15777;DHT22;7989;51.198;6.676;2022-08-01T13:13:05;26.70;99.90
15777;DHT22;7989;51.198;6.676;2022-08-01T13:15:33;26.90;99.90
15777;DHT22;7989;51.198;6.676;2022-08-01T13:18:22;27.10;99.90
15777;DHT22;7989;51.198;6.676;2022-08-01T13:20:49;27.50;99.90
15777;DHT22;7989;51.198;6.676;2022-08-01T13:23:17;27.70;99.90
15777;DHT22;7989;51.198;6.676;2022-08-01T13:25:52;27.60;99.90
15777;DHT22;7989;51.198;6.676;2022-08-01T13:28:22;27.70;99.90
15777;DHT22;7989;51.198;6.676;2022-08-01T13:30:57;27.30;99.90
15777;DHT22;7989;51.198;6.676;2022-08-01T13:33:27;27.00;99.90
15777;DHT22;7989;51.198;6.676;2022-08-01T13:35:55;27.20;99.90
15777;DHT22;7989;51.198;6.676;2022-08-01T13:38:23;27.30;99.90
15777;DHT22;7989;51.198;6.676;2022-08-01T13:41:03;27.50;99.90
15777;DHT22;7989;51.198;6.676;2022-08-01T13:43:31;27.20;99.90
15777;DHT22;7989;51.198;6.676;2022-08-01T13:45:58;27.40;99.90
15777;DHT22;7989;51.198;6.676;2022-08-01T13:48:26;27.70;99.90
15777;DHT22;7989;51.198;6.676;2022-08-01T13:50:53;27.80;99.90
15777;DHT22;7989;51.198;6.676;2022-08-01T13:53:19;27.40;99.90
15777;DHT22;7989;51.198;6.676;2022-08-01T13:55:46;27.30;99.90
15777;DHT22;7989;51.198;6.676;2022-08-01T13:58:13;27.10;99.90
15777;DHT22;7989;51.198;6.676;2022-08-01T14:00:40;26.70;99.90
15777;DHT22;7989;51.198;6.676;2022-08-01T14:03:07;26.80;99.90
15777;DHT22;7989;51.198;6.676;2022-08-01T14:05:36;26.90;99.90
15777;DHT22;7989;51.198;6.676;2022-08-01T14:08:04;26.90;99.90
15777;DHT22;7989;51.198;6.676;2022-08-01T14:10:30;26.70;99.90
15777;DHT22;7989;51.198;6.676;2022-08-01T14:12:57;26.90;99.90
15777;DHT22;7989;51.198;6.676;2022-08-01T14:15:24;26.80;99.90
15777;DHT22;7989;51.198;6.676;2022-08-01T14:17:52;26.60;99.90
15777;DHT22;7989;51.198;6.676;2022-08-01T14:20:18;26.60;99.90
15777;DHT22;7989;51.198;6.676;2022-08-01T14:22:47;26.90;99.90
15777;DHT22;7989;51.198;6.676;2022-08-01T14:25:14;27.20;99.90
15777;DHT22;7989;51.198;6.676;2022-08-01T14:27:43;27.10;99.90
15777;DHT22;7989;51.198;6.676;2022-08-01T14:30:11;26.80;99.90
15777;DHT22;7989;51.198;6.676;2022-08-01T14:32:38;27.10;99.90
15777;DHT22;7989;51.198;6.676;2022-08-01T14:35:06;27.10;99.90
15777;DHT22;7989;51.198;6.676;2022-08-01T14:37:33;26.90;99.90
15777;DHT22;7989;51.198;6.676;2022-08-01T14:40:01;26.70;99.90
15777;DHT22;7989;51.198;6.676;2022-08-01T14:42:31;26.80;99.90
15777;DHT22;7989;51.198;6.676;2022-08-01T14:44:57;27.00;99.90
15777;DHT22;7989;51.198;6.676;2022-08-01T14:47:24;26.60;99.90
15777;DHT22;7989;51.198;6.676;2022-08-01T14:49:51;26.60;99.90
15777;DHT22;7989;51.198;6.676;2022-08-01T14:52:18;26.30;99.90
15777;DHT22;7989;51.198;6.676;2022-08-01T14:54:45;26.10;99.90
15777;DHT22;7989;51.198;6.676;2022-08-01T14:57:14;25.90;99.90
15777;DHT22;7989;51.198;6.676;2022-08-01T14:59:43;25.90;99.90
15777;DHT22;7989;51.198;6.676;2022-08-01T15:02:10;25.80;99.90
15777;DHT22;7989;51.198;6.676;2022-08-01T15:04:38;25.90;99.90
15777;DHT22;7989;51.198;6.676;2022-08-01T15:07:05;26.00;99.90
15777;DHT22;7989;51.198;6.676;2022-08-01T15:09:31;26.10;99.90
15777;DHT22;7989;51.198;6.676;2022-08-01T15:11:58;26.30;99.90
15777;DHT22;7989;51.198;6.676;2022-08-01T15:14:26;26.30;99.90
15777;DHT22;7989;51.198;6.676;2022-08-01T15:17:11;26.30;99.90
15777;DHT22;7989;51.198;6.676;2022-08-01T15:19:38;26.00;99.90
15777;DHT22;7989;51.198;6.676;2022-08-01T15:22:04;25.90;99.90
15777;DHT22;7989;51.198;6.676;2022-08-01T15:24:31;25.70;99.90
15777;DHT22;7989;51.198;6.676;2022-08-01T15:26:58;25.70;99.90
15777;DHT22;7989;51.198;6.676;2022-08-01T15:29:26;26.10;99.90
15777;DHT22;7989;51.198;6.676;2022-08-01T15:31:53;26.20;99.90
15777;DHT22;7989;51.198;6.676;2022-08-01T15:34:20;26.20;99.90
15777;DHT22;7989;51.198;6.676;2022-08-01T15:36:48;26.30;99.90
15777;DHT22;7989;51.198;6.676;2022-08-01T15:39:15;26.30;99.90
15777;DHT22;7989;51.198;6.676;2022-08-01T15:41:41;26.30;99.90
15777;DHT22;7989;51.198;6.676;2022-08-01T15:44:08;26.20;99.90
15777;DHT22;7989;51.198;6.676;2022-08-01T15:46:36;25.60;99.90
15777;DHT22;7989;51.198;6.676;2022-08-01T15:49:04;25.60;99.90
15777;DHT22;7989;51.198;6.676;2022-08-01T15:51:31;25.70;99.90
15777;DHT22;7989;51.198;6.676;2022-08-01T15:53:58;25.80;99.90
15777;DHT22;7989;51.198;6.676;2022-08-01T15:56:28;26.00;99.90
15777;DHT22;7989;51.198;6.676;2022-08-01T15:58:55;26.00;99.90
15777;DHT22;7989;51.198;6.676;2022-08-01T16:01:22;26.00;99.90
15777;DHT22;7989;51.198;6.676;2022-08-01T16:03:52;25.70;99.90
15777;DHT22;7989;51.198;6.676;2022-08-01T16:06:19;25.70;99.90
15777;DHT22;7989;51.198;6.676;2022-08-01T16:08:46;25.50;99.90